NOZ524 ENGM-ENZV
Flight info
| Callsign | NOZ524 |
|---|---|
| Flight time | 0h 39m |
| Altitude | 32000 |
| Route | ATLAP DCT IPMOD DCT ROPNO |
| Aircraft | B738/M-SDE2E3FGHIRWXY/LB1 |
Departure
| Time | 2026-05-09 05:38 |
|---|---|
| Airport | Oslo-Gardermoen International Airport (ENGM) |
Arrival
| Time | 2026-05-09 06:17 |
|---|---|
| Airport | Stavanger Airport, Sola (ENZV) |
| Time | Latitude | Longitude | Altitude | Speed | Heading |
|---|---|---|---|---|---|
| 2026-05-09 05:21 | 60.19530 | 11.09652 | 685 ft | 0 kts | 196° |
| 2026-05-09 05:29 | 60.19531 | 11.09653 | 690 ft | 1 kts | 196° |
| 2026-05-09 05:29 | 60.19555 | 11.09667 | 687 ft | 4 kts | 197° |
| 2026-05-09 05:29 | 60.19573 | 11.09678 | 684 ft | 0 kts | 197° |
| 2026-05-09 05:31 | 60.19569 | 11.09670 | 683 ft | 2 kts | 227° |
| 2026-05-09 05:32 | 60.19589 | 11.09634 | 687 ft | 8 kts | 339° |
| 2026-05-09 05:32 | 60.19656 | 11.09539 | 688 ft | 16 kts | 301° |
| 2026-05-09 05:32 | 60.19696 | 11.09278 | 683 ft | 22 kts | 286° |
| 2026-05-09 05:32 | 60.19742 | 11.08973 | 685 ft | 24 kts | 287° |
| 2026-05-09 05:33 | 60.19798 | 11.08711 | 682 ft | 19 kts | 331° |
| 2026-05-09 05:33 | 60.19927 | 11.08758 | 680 ft | 20 kts | 16° |
| 2026-05-09 05:33 | 60.20098 | 11.08853 | 681 ft | 28 kts | 17° |
| 2026-05-09 05:33 | 60.20282 | 11.08963 | 682 ft | 27 kts | 16° |
| 2026-05-09 05:34 | 60.20455 | 11.09063 | 679 ft | 25 kts | 16° |
| 2026-05-09 05:34 | 60.20617 | 11.09158 | 682 ft | 24 kts | 16° |
| 2026-05-09 05:34 | 60.20770 | 11.09244 | 683 ft | 23 kts | 16° |
| 2026-05-09 05:34 | 60.20919 | 11.09330 | 684 ft | 22 kts | 16° |
| 2026-05-09 05:35 | 60.21064 | 11.09415 | 680 ft | 21 kts | 16° |
| 2026-05-09 05:35 | 60.21204 | 11.09497 | 684 ft | 21 kts | 15° |
| 2026-05-09 05:35 | 60.21340 | 11.09573 | 686 ft | 20 kts | 15° |
| 2026-05-09 05:35 | 60.21457 | 11.09633 | 680 ft | 14 kts | 3° |
| 2026-05-09 05:36 | 60.21536 | 11.09540 | 682 ft | 14 kts | 300° |
| 2026-05-09 05:36 | 60.21568 | 11.09351 | 678 ft | 14 kts | 288° |
| 2026-05-09 05:36 | 60.21563 | 11.09168 | 679 ft | 13 kts | 237° |
| 2026-05-09 05:36 | 60.21494 | 11.09100 | 683 ft | 11 kts | 195° |
| 2026-05-09 05:37 | 60.21456 | 11.09079 | 680 ft | 0 kts | 196° |
| 2026-05-09 05:37 | 60.21421 | 11.09059 | 683 ft | 27 kts | 195° |
| 2026-05-09 05:37 | 60.20947 | 11.08787 | 683 ft | 112 kts | 196° |
| 2026-05-09 05:38 | 60.19974 | 11.08232 | 848 ft | 163 kts | 195° |
| 2026-05-09 05:38 | 60.18894 | 11.07582 | 1887 ft | 161 kts | 197° |
| 2026-05-09 05:38 | 60.17848 | 11.06934 | 2881 ft | 157 kts | 200° |
| 2026-05-09 05:38 | 60.16850 | 11.05686 | 3294 ft | 186 kts | 221° |
| 2026-05-09 05:39 | 60.16218 | 11.04402 | 3457 ft | 205 kts | 230° |
| 2026-05-09 05:39 | 60.15525 | 11.01713 | 3719 ft | 230 kts | 244° |
| 2026-05-09 05:39 | 60.14855 | 10.98638 | 4139 ft | 247 kts | 244° |
| 2026-05-09 05:39 | 60.14185 | 10.95403 | 5000 ft | 253 kts | 251° |
| 2026-05-09 05:40 | 60.13955 | 10.91883 | 5952 ft | 257 kts | 263° |
| 2026-05-09 05:40 | 60.13864 | 10.88281 | 6853 ft | 260 kts | 263° |
| 2026-05-09 05:40 | 60.13763 | 10.84637 | 7725 ft | 263 kts | 263° |
| 2026-05-09 05:40 | 60.13652 | 10.80964 | 8638 ft | 264 kts | 263° |
| 2026-05-09 05:41 | 60.13533 | 10.77276 | 9540 ft | 266 kts | 262° |
| 2026-05-09 05:41 | 60.13407 | 10.73547 | 10362 ft | 271 kts | 262° |
| 2026-05-09 05:41 | 60.13272 | 10.69625 | 10640 ft | 295 kts | 264° |
| 2026-05-09 05:41 | 60.13559 | 10.65354 | 10816 ft | 328 kts | 288° |
| 2026-05-09 05:42 | 60.14919 | 10.61459 | 11092 ft | 358 kts | 316° |
| 2026-05-09 05:42 | 60.17109 | 10.58882 | 11731 ft | 370 kts | 332° |
| 2026-05-09 05:42 | 60.19366 | 10.56407 | 12430 ft | 371 kts | 317° |
| 2026-05-09 05:42 | 60.20947 | 10.52432 | 13157 ft | 364 kts | 291° |
| 2026-05-09 05:43 | 60.21638 | 10.47580 | 13923 ft | 361 kts | 274° |
| 2026-05-09 05:43 | 60.21623 | 10.42550 | 14555 ft | 360 kts | 258° |
| 2026-05-09 05:43 | 60.21123 | 10.37615 | 15265 ft | 361 kts | 255° |
| 2026-05-09 05:43 | 60.20557 | 10.32687 | 15950 ft | 363 kts | 254° |
| 2026-05-09 05:44 | 60.19976 | 10.27720 | 16637 ft | 366 kts | 254° |
| 2026-05-09 05:44 | 60.19396 | 10.22709 | 17313 ft | 369 kts | 255° |
| 2026-05-09 05:44 | 60.18822 | 10.17662 | 17960 ft | 372 kts | 255° |
| 2026-05-09 05:44 | 60.18251 | 10.12580 | 18582 ft | 375 kts | 255° |
| 2026-05-09 05:45 | 60.17677 | 10.07449 | 19136 ft | 378 kts | 255° |
| 2026-05-09 05:45 | 60.17101 | 10.02292 | 19719 ft | 379 kts | 255° |
| 2026-05-09 05:45 | 60.16531 | 9.97187 | 20378 ft | 379 kts | 255° |
| 2026-05-09 05:45 | 60.15949 | 9.92007 | 20944 ft | 381 kts | 255° |
| 2026-05-09 05:46 | 60.15352 | 9.86725 | 21444 ft | 385 kts | 255° |
| 2026-05-09 05:46 | 60.14723 | 9.81555 | 21944 ft | 387 kts | 251° |
| 2026-05-09 05:46 | 60.13743 | 9.76531 | 22467 ft | 388 kts | 242° |
| 2026-05-09 05:46 | 60.12477 | 9.71748 | 22985 ft | 389 kts | 240° |
| 2026-05-09 05:47 | 60.11191 | 9.66951 | 23469 ft | 392 kts | 241° |
| 2026-05-09 05:47 | 60.09899 | 9.62126 | 23907 ft | 395 kts | 241° |
| 2026-05-09 05:47 | 60.08596 | 9.57242 | 24357 ft | 395 kts | 241° |
| 2026-05-09 05:47 | 60.07311 | 9.52414 | 24982 ft | 392 kts | 241° |
| 2026-05-09 05:48 | 60.06040 | 9.47634 | 25628 ft | 387 kts | 241° |
| 2026-05-09 05:48 | 60.04780 | 9.42893 | 26137 ft | 387 kts | 242° |
| 2026-05-09 05:48 | 60.03509 | 9.38121 | 26203 ft | 387 kts | 242° |
| 2026-05-09 05:48 | 60.02245 | 9.33381 | 26224 ft | 386 kts | 242° |
| 2026-05-09 05:49 | 60.00984 | 9.28661 | 26262 ft | 385 kts | 241° |
| 2026-05-09 05:49 | 59.99728 | 9.23970 | 26216 ft | 380 kts | 241° |
| 2026-05-09 05:49 | 59.98488 | 9.19351 | 26234 ft | 376 kts | 241° |
| 2026-05-09 05:49 | 59.97250 | 9.14744 | 26237 ft | 379 kts | 241° |
| 2026-05-09 05:50 | 59.95992 | 9.10079 | 26236 ft | 383 kts | 241° |
| 2026-05-09 05:50 | 59.94726 | 9.05389 | 26236 ft | 384 kts | 241° |
| 2026-05-09 05:50 | 59.93457 | 9.00700 | 26228 ft | 383 kts | 241° |
| 2026-05-09 05:50 | 59.92188 | 8.96018 | 26224 ft | 382 kts | 241° |
| 2026-05-09 05:51 | 59.90926 | 8.91375 | 26229 ft | 382 kts | 241° |
| 2026-05-09 05:51 | 59.89660 | 8.86723 | 26210 ft | 382 kts | 241° |
| 2026-05-09 05:51 | 59.88396 | 8.82092 | 26237 ft | 380 kts | 241° |
| 2026-05-09 05:51 | 59.87130 | 8.77461 | 26221 ft | 381 kts | 241° |
| 2026-05-09 05:52 | 59.85864 | 8.72837 | 26220 ft | 381 kts | 241° |
| 2026-05-09 05:52 | 59.84592 | 8.68201 | 26234 ft | 382 kts | 241° |
| 2026-05-09 05:52 | 59.83318 | 8.63571 | 26243 ft | 383 kts | 241° |
| 2026-05-09 05:52 | 59.82053 | 8.58978 | 26231 ft | 384 kts | 241° |
| 2026-05-09 05:53 | 59.80768 | 8.54325 | 26248 ft | 384 kts | 241° |
| 2026-05-09 05:53 | 59.79488 | 8.49698 | 26243 ft | 383 kts | 241° |
| 2026-05-09 05:53 | 59.78188 | 8.45009 | 26230 ft | 382 kts | 241° |
| 2026-05-09 05:53 | 59.76923 | 8.40450 | 26241 ft | 381 kts | 241° |
| 2026-05-09 05:54 | 59.75649 | 8.35869 | 26243 ft | 380 kts | 240° |
| 2026-05-09 05:54 | 59.74356 | 8.31235 | 26241 ft | 379 kts | 240° |
| 2026-05-09 05:54 | 59.73096 | 8.26706 | 26243 ft | 378 kts | 241° |
| 2026-05-09 05:54 | 59.71838 | 8.22129 | 26230 ft | 378 kts | 241° |
| 2026-05-09 05:55 | 59.70590 | 8.17573 | 26243 ft | 378 kts | 241° |
| 2026-05-09 05:55 | 59.69334 | 8.12993 | 26247 ft | 378 kts | 241° |
| 2026-05-09 05:55 | 59.68081 | 8.08429 | 26250 ft | 378 kts | 241° |
| 2026-05-09 05:55 | 59.66816 | 8.03836 | 26243 ft | 379 kts | 241° |
| 2026-05-09 05:56 | 59.65579 | 7.99357 | 26210 ft | 365 kts | 241° |
| 2026-05-09 05:56 | 59.64382 | 7.95029 | 26159 ft | 353 kts | 241° |
| 2026-05-09 05:56 | 59.63205 | 7.90787 | 25895 ft | 345 kts | 241° |
| 2026-05-09 05:56 | 59.62055 | 7.86649 | 25480 ft | 344 kts | 241° |
| 2026-05-09 05:57 | 59.60912 | 7.82533 | 25130 ft | 340 kts | 241° |
| 2026-05-09 05:57 | 59.59813 | 7.78402 | 24640 ft | 340 kts | 242° |
| 2026-05-09 05:57 | 59.58731 | 7.74228 | 24089 ft | 341 kts | 242° |
| 2026-05-09 05:57 | 59.57656 | 7.70053 | 23604 ft | 341 kts | 242° |
| 2026-05-09 05:58 | 59.56585 | 7.65904 | 23139 ft | 338 kts | 242° |
| 2026-05-09 05:58 | 59.55520 | 7.61796 | 22638 ft | 335 kts | 242° |
| 2026-05-09 05:58 | 59.54460 | 7.57718 | 22151 ft | 334 kts | 242° |
| 2026-05-09 05:58 | 59.53401 | 7.53666 | 21673 ft | 332 kts | 242° |
| 2026-05-09 05:59 | 59.52347 | 7.49641 | 21226 ft | 330 kts | 241° |
| 2026-05-09 05:59 | 59.51292 | 7.45624 | 20780 ft | 329 kts | 241° |
| 2026-05-09 05:59 | 59.50245 | 7.41645 | 20362 ft | 327 kts | 241° |
| 2026-05-09 05:59 | 59.49199 | 7.37682 | 19934 ft | 326 kts | 241° |
| 2026-05-09 06:00 | 59.48169 | 7.33782 | 19507 ft | 324 kts | 241° |
| 2026-05-09 06:00 | 59.47132 | 7.29865 | 19107 ft | 323 kts | 241° |
| 2026-05-09 06:00 | 59.46097 | 7.25964 | 18697 ft | 321 kts | 240° |
| 2026-05-09 06:00 | 59.45066 | 7.22081 | 18218 ft | 320 kts | 240° |
| 2026-05-09 06:01 | 59.44034 | 7.18206 | 17768 ft | 318 kts | 240° |
| 2026-05-09 06:01 | 59.43008 | 7.14357 | 17322 ft | 317 kts | 241° |
| 2026-05-09 06:01 | 59.41988 | 7.10539 | 16900 ft | 316 kts | 241° |
| 2026-05-09 06:01 | 59.40967 | 7.06722 | 16455 ft | 314 kts | 241° |
| 2026-05-09 06:02 | 59.39963 | 7.02973 | 15886 ft | 309 kts | 241° |
| 2026-05-09 06:02 | 59.38959 | 6.99231 | 15145 ft | 311 kts | 241° |
| 2026-05-09 06:02 | 59.37948 | 6.95475 | 14465 ft | 310 kts | 241° |
| 2026-05-09 06:02 | 59.36945 | 6.91749 | 13821 ft | 308 kts | 241° |
| 2026-05-09 06:03 | 59.35945 | 6.88043 | 13151 ft | 306 kts | 241° |
| 2026-05-09 06:03 | 59.34958 | 6.84388 | 12531 ft | 302 kts | 241° |
| 2026-05-09 06:03 | 59.33983 | 6.80782 | 12077 ft | 295 kts | 241° |
| 2026-05-09 06:03 | 59.33035 | 6.77283 | 11683 ft | 286 kts | 241° |
| 2026-05-09 06:04 | 59.32115 | 6.73895 | 11333 ft | 278 kts | 241° |
| 2026-05-09 06:04 | 59.31213 | 6.70575 | 10987 ft | 275 kts | 241° |
| 2026-05-09 06:04 | 59.30320 | 6.67296 | 10723 ft | 270 kts | 241° |
| 2026-05-09 06:04 | 59.29438 | 6.64060 | 10625 ft | 273 kts | 241° |
| 2026-05-09 06:05 | 59.28529 | 6.60735 | 10509 ft | 278 kts | 241° |
| 2026-05-09 06:05 | 59.27629 | 6.57443 | 10374 ft | 271 kts | 241° |
| 2026-05-09 06:05 | 59.26754 | 6.54246 | 10250 ft | 263 kts | 241° |
| 2026-05-09 06:05 | 59.25895 | 6.51112 | 9962 ft | 261 kts | 241° |
| 2026-05-09 06:06 | 59.25040 | 6.47999 | 9670 ft | 259 kts | 241° |
| 2026-05-09 06:06 | 59.24194 | 6.44919 | 9411 ft | 256 kts | 240° |
| 2026-05-09 06:06 | 59.23353 | 6.41863 | 9101 ft | 256 kts | 240° |
| 2026-05-09 06:06 | 59.22497 | 6.38760 | 8683 ft | 260 kts | 239° |
| 2026-05-09 06:07 | 59.21638 | 6.35650 | 8352 ft | 259 kts | 239° |
| 2026-05-09 06:07 | 59.20789 | 6.32578 | 8081 ft | 256 kts | 239° |
| 2026-05-09 06:07 | 59.19946 | 6.29533 | 7781 ft | 255 kts | 239° |
| 2026-05-09 06:07 | 59.19106 | 6.26502 | 7514 ft | 253 kts | 239° |
| 2026-05-09 06:08 | 59.18273 | 6.23499 | 7232 ft | 251 kts | 239° |
| 2026-05-09 06:08 | 59.17444 | 6.20516 | 6963 ft | 249 kts | 239° |
| 2026-05-09 06:08 | 59.16620 | 6.17555 | 6691 ft | 249 kts | 239° |
| 2026-05-09 06:08 | 59.15807 | 6.14639 | 6374 ft | 247 kts | 239° |
| 2026-05-09 06:09 | 59.14990 | 6.11708 | 6097 ft | 245 kts | 239° |
| 2026-05-09 06:09 | 59.14179 | 6.08803 | 5816 ft | 244 kts | 238° |
| 2026-05-09 06:09 | 59.13369 | 6.05909 | 5520 ft | 242 kts | 238° |
| 2026-05-09 06:09 | 59.12565 | 6.03036 | 5227 ft | 241 kts | 238° |
| 2026-05-09 06:10 | 59.11764 | 6.00180 | 4956 ft | 239 kts | 238° |
| 2026-05-09 06:10 | 59.10969 | 5.97346 | 4657 ft | 238 kts | 238° |
| 2026-05-09 06:10 | 59.10177 | 5.94528 | 4370 ft | 236 kts | 238° |
| 2026-05-09 06:10 | 59.09390 | 5.91729 | 4084 ft | 236 kts | 238° |
| 2026-05-09 06:11 | 59.08606 | 5.88945 | 3802 ft | 234 kts | 238° |
| 2026-05-09 06:11 | 59.07835 | 5.86208 | 3500 ft | 227 kts | 238° |
| 2026-05-09 06:11 | 59.07086 | 5.83552 | 3227 ft | 219 kts | 238° |
| 2026-05-09 06:11 | 59.06372 | 5.81025 | 2955 ft | 212 kts | 238° |
| 2026-05-09 06:12 | 59.05658 | 5.78511 | 2722 ft | 213 kts | 238° |
| 2026-05-09 06:12 | 59.04948 | 5.75995 | 2471 ft | 212 kts | 239° |
| 2026-05-09 06:12 | 59.04371 | 5.73337 | 2203 ft | 215 kts | 245° |
| 2026-05-09 06:12 | 59.03853 | 5.70619 | 2046 ft | 212 kts | 245° |
| 2026-05-09 06:13 | 59.03347 | 5.67969 | 1990 ft | 205 kts | 246° |
| 2026-05-09 06:13 | 59.02833 | 5.65465 | 1954 ft | 192 kts | 237° |
| 2026-05-09 06:13 | 59.01886 | 5.63994 | 1979 ft | 174 kts | 190° |
| 2026-05-09 06:13 | 59.00684 | 5.63965 | 1991 ft | 171 kts | 185° |
| 2026-05-09 06:14 | 58.99536 | 5.63606 | 1993 ft | 164 kts | 188° |
| 2026-05-09 06:14 | 58.98439 | 5.63476 | 1847 ft | 151 kts | 181° |
| 2026-05-09 06:14 | 58.97443 | 5.63489 | 1693 ft | 135 kts | 180° |
| 2026-05-09 06:14 | 58.96546 | 5.63515 | 1517 ft | 122 kts | 180° |
| 2026-05-09 06:15 | 58.95682 | 5.63541 | 1335 ft | 125 kts | 180° |
| 2026-05-09 06:15 | 58.94817 | 5.63568 | 1154 ft | 124 kts | 180° |
| 2026-05-09 06:15 | 58.93955 | 5.63594 | 978 ft | 124 kts | 179° |
| 2026-05-09 06:15 | 58.93073 | 5.63620 | 807 ft | 130 kts | 180° |
| 2026-05-09 06:16 | 58.92168 | 5.63648 | 636 ft | 132 kts | 179° |
| 2026-05-09 06:16 | 58.91243 | 5.63674 | 465 ft | 134 kts | 180° |
| 2026-05-09 06:16 | 58.90298 | 5.63705 | 249 ft | 134 kts | 178° |
| 2026-05-09 06:16 | 58.89385 | 5.63741 | 66 ft | 129 kts | 179° |
| 2026-05-09 06:17 | 58.88548 | 5.63762 | 28 ft | 100 kts | 179° |
| 2026-05-09 06:17 | 58.88060 | 5.63772 | 31 ft | 49 kts | 179° |
| 2026-05-09 06:17 | 58.87776 | 5.63780 | 32 ft | 19 kts | 179° |
| 2026-05-09 06:17 | 58.87699 | 5.63655 | 32 ft | 18 kts | 279° |
| 2026-05-09 06:18 | 58.87732 | 5.63426 | 30 ft | 17 kts | 287° |
| 2026-05-09 06:18 | 58.87814 | 5.63288 | 30 ft | 17 kts | 357° |
| 2026-05-09 06:18 | 58.87914 | 5.63342 | 30 ft | 13 kts | 21° |
| 2026-05-09 06:18 | 58.87992 | 5.63328 | 29 ft | 12 kts | 318° |
| 2026-05-09 06:19 | 58.88046 | 5.63191 | 27 ft | 13 kts | 304° |
| 2026-05-09 06:19 | 58.88111 | 5.63058 | 23 ft | 11 kts | 315° |
| 2026-05-09 06:19 | 58.88126 | 5.63026 | 24 ft | 0 kts | 314° |